sensor_id;sensor_type;location;lat;lon;timestamp;temperature;humidity
820;DHT22;392;48.838;2.322;2023-03-01T00:01:15;3.30;15.70
820;DHT22;392;48.838;2.322;2023-03-01T00:03:45;3.40;15.60
820;DHT22;392;48.838;2.322;2023-03-01T00:06:13;3.40;15.40
820;DHT22;392;48.838;2.322;2023-03-01T00:08:41;3.40;15.40
820;DHT22;392;48.838;2.322;2023-03-01T00:11:12;3.30;15.40
820;DHT22;392;48.838;2.322;2023-03-01T00:13:41;3.40;15.60
820;DHT22;392;48.838;2.322;2023-03-01T00:16:12;3.40;15.40
820;DHT22;392;48.838;2.322;2023-03-01T00:18:41;3.40;15.60
820;DHT22;392;48.838;2.322;2023-03-01T00:21:09;3.40;15.60
820;DHT22;392;48.838;2.322;2023-03-01T00:23:38;3.50;15.70
820;DHT22;392;48.838;2.322;2023-03-01T00:26:07;3.50;15.70
820;DHT22;392;48.838;2.322;2023-03-01T00:28:37;3.40;15.70
820;DHT22;392;48.838;2.322;2023-03-01T00:31:05;3.40;15.90
820;DHT22;392;48.838;2.322;2023-03-01T00:33:32;3.40;15.90
820;DHT22;392;48.838;2.322;2023-03-01T00:36:00;3.40;15.90
820;DHT22;392;48.838;2.322;2023-03-01T00:38:29;3.40;15.90
820;DHT22;392;48.838;2.322;2023-03-01T00:41:03;3.40;16.00
820;DHT22;392;48.838;2.322;2023-03-01T00:43:31;3.40;16.00
820;DHT22;392;48.838;2.322;2023-03-01T00:46:03;3.40;16.20
820;DHT22;392;48.838;2.322;2023-03-01T00:48:31;3.30;16.30
820;DHT22;392;48.838;2.322;2023-03-01T00:51:05;3.30;16.30
820;DHT22;392;48.838;2.322;2023-03-01T00:53:34;3.20;16.40
820;DHT22;392;48.838;2.322;2023-03-01T00:56:02;3.20;16.60
820;DHT22;392;48.838;2.322;2023-03-01T00:58:31;3.10;16.70
820;DHT22;392;48.838;2.322;2023-03-01T01:00:59;3.10;16.80
820;DHT22;392;48.838;2.322;2023-03-01T01:03:26;3.00;17.20
820;DHT22;392;48.838;2.322;2023-03-01T01:05:54;3.00;17.80
820;DHT22;392;48.838;2.322;2023-03-01T01:08:21;3.00;17.20
820;DHT22;392;48.838;2.322;2023-03-01T01:10:50;3.00;17.20
820;DHT22;392;48.838;2.322;2023-03-01T01:13:17;3.00;17.20
820;DHT22;392;48.838;2.322;2023-03-01T01:15:45;3.00;17.20
820;DHT22;392;48.838;2.322;2023-03-01T01:18:12;2.90;17.10
820;DHT22;392;48.838;2.322;2023-03-01T01:20:40;2.90;17.10
820;DHT22;392;48.838;2.322;2023-03-01T01:23:07;2.90;17.40
820;DHT22;392;48.838;2.322;2023-03-01T01:25:35;2.90;17.40
820;DHT22;392;48.838;2.322;2023-03-01T01:28:04;2.90;17.30
820;DHT22;392;48.838;2.322;2023-03-01T01:30:31;2.90;17.40
820;DHT22;392;48.838;2.322;2023-03-01T01:32:59;2.80;17.50
820;DHT22;392;48.838;2.322;2023-03-01T01:35:27;2.80;17.50
820;DHT22;392;48.838;2.322;2023-03-01T01:37:55;2.90;17.50
820;DHT22;392;48.838;2.322;2023-03-01T01:40:22;2.80;17.50
820;DHT22;392;48.838;2.322;2023-03-01T01:42:49;2.80;17.70
820;DHT22;392;48.838;2.322;2023-03-01T01:45:36;2.80;17.60
820;DHT22;392;48.838;2.322;2023-03-01T01:48:06;2.80;17.90
820;DHT22;392;48.838;2.322;2023-03-01T01:50:39;2.80;17.80
820;DHT22;392;48.838;2.322;2023-03-01T01:53:10;2.70;17.80
820;DHT22;392;48.838;2.322;2023-03-01T01:55:41;2.80;18.00
820;DHT22;392;48.838;2.322;2023-03-01T01:58:12;2.80;17.90
820;DHT22;392;48.838;2.322;2023-03-01T02:00:42;2.90;17.80
820;DHT22;392;48.838;2.322;2023-03-01T02:03:13;2.90;17.70
820;DHT22;392;48.838;2.322;2023-03-01T02:05:47;2.90;17.60
820;DHT22;392;48.838;2.322;2023-03-01T02:08:20;3.00;17.60
820;DHT22;392;48.838;2.322;2023-03-01T02:10:49;3.00;17.70
820;DHT22;392;48.838;2.322;2023-03-01T02:13:17;3.10;17.60
820;DHT22;392;48.838;2.322;2023-03-01T02:15:46;3.20;17.40
820;DHT22;392;48.838;2.322;2023-03-01T02:18:16;3.20;17.30
820;DHT22;392;48.838;2.322;2023-03-01T02:20:55;3.20;17.40
820;DHT22;392;48.838;2.322;2023-03-01T02:23:30;3.20;17.40
820;DHT22;392;48.838;2.322;2023-03-01T02:26:02;3.10;17.50
820;DHT22;392;48.838;2.322;2023-03-01T02:28:35;3.00;17.80
820;DHT22;392;48.838;2.322;2023-03-01T02:31:05;2.90;18.60
820;DHT22;392;48.838;2.322;2023-03-01T02:33:52;2.80;18.30
820;DHT22;392;48.838;2.322;2023-03-01T02:36:23;2.70;18.30
820;DHT22;392;48.838;2.322;2023-03-01T02:38:55;2.70;18.50
820;DHT22;392;48.838;2.322;2023-03-01T02:41:26;2.60;18.70
820;DHT22;392;48.838;2.322;2023-03-01T02:43:57;2.50;19.00
820;DHT22;392;48.838;2.322;2023-03-01T02:46:25;2.50;19.10
820;DHT22;392;48.838;2.322;2023-03-01T02:48:55;2.40;19.30
820;DHT22;392;48.838;2.322;2023-03-01T02:51:41;2.30;19.50
820;DHT22;392;48.838;2.322;2023-03-01T02:54:18;2.30;19.50
820;DHT22;392;48.838;2.322;2023-03-01T02:56:49;2.30;19.70
820;DHT22;392;48.838;2.322;2023-03-01T02:59:23;2.20;20.00
820;DHT22;392;48.838;2.322;2023-03-01T03:01:53;2.30;19.90
820;DHT22;392;48.838;2.322;2023-03-01T03:04:21;2.50;19.80
820;DHT22;392;48.838;2.322;2023-03-01T03:06:50;2.50;19.60
820;DHT22;392;48.838;2.322;2023-03-01T03:09:18;2.50;19.50
820;DHT22;392;48.838;2.322;2023-03-01T03:11:46;2.50;19.50
820;DHT22;392;48.838;2.322;2023-03-01T03:14:15;2.50;19.50
820;DHT22;392;48.838;2.322;2023-03-01T03:16:49;2.60;19.50
820;DHT22;392;48.838;2.322;2023-03-01T03:19:17;2.50;19.50
820;DHT22;392;48.838;2.322;2023-03-01T03:21:46;2.50;19.60
820;DHT22;392;48.838;2.322;2023-03-01T03:24:13;2.50;19.70
820;DHT22;392;48.838;2.322;2023-03-01T03:26:40;2.50;20.40
820;DHT22;392;48.838;2.322;2023-03-01T03:29:08;2.50;19.80
820;DHT22;392;48.838;2.322;2023-03-01T03:31:35;2.50;19.80
820;DHT22;392;48.838;2.322;2023-03-01T03:34:04;2.60;19.70
820;DHT22;392;48.838;2.322;2023-03-01T03:36:31;2.50;19.80
820;DHT22;392;48.838;2.322;2023-03-01T03:38:58;2.40;20.00
820;DHT22;392;48.838;2.322;2023-03-01T03:41:26;2.30;20.20
820;DHT22;392;48.838;2.322;2023-03-01T03:43:53;2.30;20.30
820;DHT22;392;48.838;2.322;2023-03-01T03:46:20;2.20;20.50
820;DHT22;392;48.838;2.322;2023-03-01T03:48:47;2.20;20.60
820;DHT22;392;48.838;2.322;2023-03-01T03:51:18;2.30;20.60
820;DHT22;392;48.838;2.322;2023-03-01T03:53:45;2.30;20.40
820;DHT22;392;48.838;2.322;2023-03-01T03:56:13;2.30;20.40
820;DHT22;392;48.838;2.322;2023-03-01T03:58:40;2.30;20.50
820;DHT22;392;48.838;2.322;2023-03-01T04:01:07;2.40;20.60
820;DHT22;392;48.838;2.322;2023-03-01T04:03:35;2.40;20.40
820;DHT22;392;48.838;2.322;2023-03-01T04:06:02;2.40;20.40
820;DHT22;392;48.838;2.322;2023-03-01T04:08:33;2.40;20.30
820;DHT22;392;48.838;2.322;2023-03-01T04:11:02;2.40;20.40
820;DHT22;392;48.838;2.322;2023-03-01T04:13:52;2.40;20.40
820;DHT22;392;48.838;2.322;2023-03-01T04:16:20;2.40;20.30
820;DHT22;392;48.838;2.322;2023-03-01T04:18:48;2.40;20.30
820;DHT22;392;48.838;2.322;2023-03-01T04:21:15;2.40;20.20
820;DHT22;392;48.838;2.322;2023-03-01T04:23:44;2.40;20.40
820;DHT22;392;48.838;2.322;2023-03-01T04:26:11;2.40;20.40
820;DHT22;392;48.838;2.322;2023-03-01T04:28:40;2.40;20.50
820;DHT22;392;48.838;2.322;2023-03-01T04:31:12;2.30;20.70
820;DHT22;392;48.838;2.322;2023-03-01T04:33:42;2.30;20.70
820;DHT22;392;48.838;2.322;2023-03-01T04:36:11;2.30;20.60
820;DHT22;392;48.838;2.322;2023-03-01T04:38:40;2.30;20.80
820;DHT22;392;48.838;2.322;2023-03-01T04:41:10;2.30;20.80
820;DHT22;392;48.838;2.322;2023-03-01T04:43:37;2.20;20.80
820;DHT22;392;48.838;2.322;2023-03-01T04:46:07;2.20;20.90
820;DHT22;392;48.838;2.322;2023-03-01T04:48:36;2.20;21.00
820;DHT22;392;48.838;2.322;2023-03-01T04:51:04;2.30;21.00
820;DHT22;392;48.838;2.322;2023-03-01T04:53:33;2.30;20.90
820;DHT22;392;48.838;2.322;2023-03-01T04:56:02;2.20;21.10
820;DHT22;392;48.838;2.322;2023-03-01T04:58:31;2.30;21.10
820;DHT22;392;48.838;2.322;2023-03-01T05:00:58;2.30;21.00
820;DHT22;392;48.838;2.322;2023-03-01T05:03:26;2.30;21.20
820;DHT22;392;48.838;2.322;2023-03-01T05:05:54;2.30;21.20
820;DHT22;392;48.838;2.322;2023-03-01T05:08:26;2.30;21.30
820;DHT22;392;48.838;2.322;2023-03-01T05:10:53;2.20;21.40
820;DHT22;392;48.838;2.322;2023-03-01T05:13:21;2.20;21.60
820;DHT22;392;48.838;2.322;2023-03-01T05:15:54;2.20;22.10
820;DHT22;392;48.838;2.322;2023-03-01T05:18:23;2.10;21.70
820;DHT22;392;48.838;2.322;2023-03-01T05:20:51;2.20;21.90
820;DHT22;392;48.838;2.322;2023-03-01T05:23:23;2.20;21.70
820;DHT22;392;48.838;2.322;2023-03-01T05:25:51;2.20;21.70
820;DHT22;392;48.838;2.322;2023-03-01T05:28:19;2.10;21.80
820;DHT22;392;48.838;2.322;2023-03-01T05:30:47;2.10;22.00
820;DHT22;392;48.838;2.322;2023-03-01T05:33:18;2.20;22.10
820;DHT22;392;48.838;2.322;2023-03-01T05:35:48;2.20;21.80
820;DHT22;392;48.838;2.322;2023-03-01T05:38:17;2.20;21.70
820;DHT22;392;48.838;2.322;2023-03-01T05:40:46;2.20;21.70
820;DHT22;392;48.838;2.322;2023-03-01T05:43:16;2.20;21.90
820;DHT22;392;48.838;2.322;2023-03-01T05:45:44;2.10;21.90
820;DHT22;392;48.838;2.322;2023-03-01T05:48:12;2.10;22.20
820;DHT22;392;48.838;2.322;2023-03-01T05:50:43;2.00;22.30
820;DHT22;392;48.838;2.322;2023-03-01T05:53:13;1.90;22.50
820;DHT22;392;48.838;2.322;2023-03-01T05:55:42;1.90;22.90
820;DHT22;392;48.838;2.322;2023-03-01T05:58:14;1.80;22.90
820;DHT22;392;48.838;2.322;2023-03-01T06:00:43;1.90;23.00
820;DHT22;392;48.838;2.322;2023-03-01T06:03:12;1.90;23.00
820;DHT22;392;48.838;2.322;2023-03-01T06:05:43;1.90;23.10
820;DHT22;392;48.838;2.322;2023-03-01T06:08:11;2.00;23.00
820;DHT22;392;48.838;2.322;2023-03-01T06:10:39;2.00;23.00
820;DHT22;392;48.838;2.322;2023-03-01T06:13:07;2.10;23.00
820;DHT22;392;48.838;2.322;2023-03-01T06:15:34;2.10;22.70
820;DHT22;392;48.838;2.322;2023-03-01T06:18:02;2.10;23.00
820;DHT22;392;48.838;2.322;2023-03-01T06:20:29;2.10;23.00
820;DHT22;392;48.838;2.322;2023-03-01T06:22:58;2.10;23.10
820;DHT22;392;48.838;2.322;2023-03-01T06:25:26;2.00;23.20
820;DHT22;392;48.838;2.322;2023-03-01T06:27:54;2.10;23.40
820;DHT22;392;48.838;2.322;2023-03-01T06:30:22;2.10;23.20
820;DHT22;392;48.838;2.322;2023-03-01T06:32:51;2.10;23.30
820;DHT22;392;48.838;2.322;2023-03-01T06:35:19;2.10;23.40
820;DHT22;392;48.838;2.322;2023-03-01T06:37:47;2.10;23.20
820;DHT22;392;48.838;2.322;2023-03-01T06:40:16;2.10;23.30
820;DHT22;392;48.838;2.322;2023-03-01T06:42:48;2.10;23.30
820;DHT22;392;48.838;2.322;2023-03-01T06:45:16;2.10;23.50
820;DHT22;392;48.838;2.322;2023-03-01T06:47:44;2.10;24.10
820;DHT22;392;48.838;2.322;2023-03-01T06:50:13;2.10;23.40
820;DHT22;392;48.838;2.322;2023-03-01T06:52:40;2.20;23.50
820;DHT22;392;48.838;2.322;2023-03-01T06:55:09;2.20;23.40
820;DHT22;392;48.838;2.322;2023-03-01T06:57:38;2.20;23.40
820;DHT22;392;48.838;2.322;2023-03-01T07:00:07;2.20;23.20
820;DHT22;392;48.838;2.322;2023-03-01T07:02:35;2.20;23.30
820;DHT22;392;48.838;2.322;2023-03-01T07:05:02;2.10;23.50
820;DHT22;392;48.838;2.322;2023-03-01T07:07:30;2.10;23.70
820;DHT22;392;48.838;2.322;2023-03-01T07:09:58;2.10;23.80
820;DHT22;392;48.838;2.322;2023-03-01T07:12:27;2.00;23.90
820;DHT22;392;48.838;2.322;2023-03-01T07:14:56;2.00;24.10
820;DHT22;392;48.838;2.322;2023-03-01T07:17:23;2.10;24.10
820;DHT22;392;48.838;2.322;2023-03-01T07:19:51;2.20;23.90
820;DHT22;392;48.838;2.322;2023-03-01T07:22:18;2.20;23.80
820;DHT22;392;48.838;2.322;2023-03-01T07:24:45;2.20;23.80
820;DHT22;392;48.838;2.322;2023-03-01T07:27:13;2.20;23.90
820;DHT22;392;48.838;2.322;2023-03-01T07:29:40;2.30;23.70
820;DHT22;392;48.838;2.322;2023-03-01T07:32:09;2.30;23.80
820;DHT22;392;48.838;2.322;2023-03-01T07:34:37;2.30;23.80
820;DHT22;392;48.838;2.322;2023-03-01T07:37:04;2.40;23.70
820;DHT22;392;48.838;2.322;2023-03-01T07:39:32;2.40;23.50
820;DHT22;392;48.838;2.322;2023-03-01T07:41:59;2.40;23.30
820;DHT22;392;48.838;2.322;2023-03-01T07:44:26;2.40;23.40
820;DHT22;392;48.838;2.322;2023-03-01T07:46:55;2.50;23.50
820;DHT22;392;48.838;2.322;2023-03-01T07:49:25;2.50;23.90
820;DHT22;392;48.838;2.322;2023-03-01T07:51:53;2.50;23.30
820;DHT22;392;48.838;2.322;2023-03-01T07:54:21;2.60;23.20
820;DHT22;392;48.838;2.322;2023-03-01T07:56:48;2.50;23.10
820;DHT22;392;48.838;2.322;2023-03-01T07:59:38;2.50;23.00
820;DHT22;392;48.838;2.322;2023-03-01T08:02:06;2.50;23.00
820;DHT22;392;48.838;2.322;2023-03-01T08:04:36;2.50;23.20
820;DHT22;392;48.838;2.322;2023-03-01T08:07:05;2.50;23.20
820;DHT22;392;48.838;2.322;2023-03-01T08:09:34;2.50;23.30
820;DHT22;392;48.838;2.322;2023-03-01T08:12:03;2.50;23.20
820;DHT22;392;48.838;2.322;2023-03-01T08:14:31;2.60;23.20
820;DHT22;392;48.838;2.322;2023-03-01T08:16:58;2.70;23.10
820;DHT22;392;48.838;2.322;2023-03-01T08:19:26;2.80;22.80
820;DHT22;392;48.838;2.322;2023-03-01T08:21:55;2.90;22.50
820;DHT22;392;48.838;2.322;2023-03-01T08:24:24;3.00;22.00
820;DHT22;392;48.838;2.322;2023-03-01T08:26:51;3.00;21.90
820;DHT22;392;48.838;2.322;2023-03-01T08:29:18;3.10;22.00
820;DHT22;392;48.838;2.322;2023-03-01T08:31:46;3.20;21.80
820;DHT22;392;48.838;2.322;2023-03-01T08:34:16;3.30;21.70
820;DHT22;392;48.838;2.322;2023-03-01T08:36:45;3.40;21.50
820;DHT22;392;48.838;2.322;2023-03-01T08:39:16;3.50;21.20
820;DHT22;392;48.838;2.322;2023-03-01T08:41:44;3.50;21.10
820;DHT22;392;48.838;2.322;2023-03-01T08:44:13;3.60;20.90
820;DHT22;392;48.838;2.322;2023-03-01T08:46:42;3.60;20.80
820;DHT22;392;48.838;2.322;2023-03-01T08:49:12;3.60;20.80
820;DHT22;392;48.838;2.322;2023-03-01T08:51:41;3.60;20.60
820;DHT22;392;48.838;2.322;2023-03-01T08:54:11;3.60;20.80
820;DHT22;392;48.838;2.322;2023-03-01T08:56:42;3.60;20.60
820;DHT22;392;48.838;2.322;2023-03-01T08:59:10;3.60;20.60
820;DHT22;392;48.838;2.322;2023-03-01T09:01:38;3.60;20.60
820;DHT22;392;48.838;2.322;2023-03-01T09:04:06;3.60;20.70
820;DHT22;392;48.838;2.322;2023-03-01T09:06:34;3.60;20.60
820;DHT22;392;48.838;2.322;2023-03-01T09:09:02;3.70;20.60
820;DHT22;392;48.838;2.322;2023-03-01T09:11:31;3.80;19.90
820;DHT22;392;48.838;2.322;2023-03-01T09:14:00;3.70;20.00
820;DHT22;392;48.838;2.322;2023-03-01T09:16:27;3.70;20.20
820;DHT22;392;48.838;2.322;2023-03-01T09:18:55;3.60;20.40
820;DHT22;392;48.838;2.322;2023-03-01T09:21:23;3.50;20.70
820;DHT22;392;48.838;2.322;2023-03-01T09:23:51;3.60;20.30
820;DHT22;392;48.838;2.322;2023-03-01T09:26:20;3.60;20.40
820;DHT22;392;48.838;2.322;2023-03-01T09:28:49;3.60;20.60
820;DHT22;392;48.838;2.322;2023-03-01T09:31:21;3.70;20.20
820;DHT22;392;48.838;2.322;2023-03-01T09:33:50;3.90;19.80
820;DHT22;392;48.838;2.322;2023-03-01T09:36:20;3.90;19.60
820;DHT22;392;48.838;2.322;2023-03-01T09:38:49;4.00;19.70
820;DHT22;392;48.838;2.322;2023-03-01T09:41:30;4.10;19.50
820;DHT22;392;48.838;2.322;2023-03-01T09:44:12;4.10;19.50
820;DHT22;392;48.838;2.322;2023-03-01T09:46:47;4.10;19.30
820;DHT22;392;48.838;2.322;2023-03-01T09:49:17;4.20;19.20
820;DHT22;392;48.838;2.322;2023-03-01T09:51:57;4.20;19.00
820;DHT22;392;48.838;2.322;2023-03-01T09:54:27;4.20;19.20
820;DHT22;392;48.838;2.322;2023-03-01T09:57:05;4.20;19.10
820;DHT22;392;48.838;2.322;2023-03-01T09:59:47;4.20;19.10
820;DHT22;392;48.838;2.322;2023-03-01T10:02:39;4.30;19.00
820;DHT22;392;48.838;2.322;2023-03-01T10:05:19;4.40;18.80
820;DHT22;392;48.838;2.322;2023-03-01T10:08:03;4.40;18.80
820;DHT22;392;48.838;2.322;2023-03-01T10:10:47;4.40;19.30
820;DHT22;392;48.838;2.322;2023-03-01T10:13:17;4.50;18.60
820;DHT22;392;48.838;2.322;2023-03-01T10:15:49;4.60;18.60
820;DHT22;392;48.838;2.322;2023-03-01T10:18:24;4.50;18.20
820;DHT22;392;48.838;2.322;2023-03-01T10:20:54;4.60;18.40
820;DHT22;392;48.838;2.322;2023-03-01T10:23:23;4.80;18.40
820;DHT22;392;48.838;2.322;2023-03-01T10:26:02;4.90;18.10
820;DHT22;392;48.838;2.322;2023-03-01T10:28:44;5.00;17.80
820;DHT22;392;48.838;2.322;2023-03-01T10:31:19;5.10;17.80
820;DHT22;392;48.838;2.322;2023-03-01T10:33:55;5.10;17.70
820;DHT22;392;48.838;2.322;2023-03-01T10:36:24;5.20;17.80
820;DHT22;392;48.838;2.322;2023-03-01T10:38:53;5.30;17.60
820;DHT22;392;48.838;2.322;2023-03-01T10:41:23;5.40;17.50
820;DHT22;392;48.838;2.322;2023-03-01T10:43:53;5.40;17.30
820;DHT22;392;48.838;2.322;2023-03-01T10:46:24;5.50;17.30
820;DHT22;392;48.838;2.322;2023-03-01T10:49:14;5.60;17.00
820;DHT22;392;48.838;2.322;2023-03-01T10:51:44;5.60;16.80
820;DHT22;392;48.838;2.322;2023-03-01T10:54:19;5.60;16.70
820;DHT22;392;48.838;2.322;2023-03-01T10:56:49;5.60;16.30
820;DHT22;392;48.838;2.322;2023-03-01T10:59:28;5.60;16.30
820;DHT22;392;48.838;2.322;2023-03-01T11:02:13;5.70;16.20
820;DHT22;392;48.838;2.322;2023-03-01T11:04:58;5.80;16.20
820;DHT22;392;48.838;2.322;2023-03-01T11:07:27;5.90;16.00
820;DHT22;392;48.838;2.322;2023-03-01T11:09:55;5.90;15.90
820;DHT22;392;48.838;2.322;2023-03-01T11:12:24;5.90;16.00
820;DHT22;392;48.838;2.322;2023-03-01T11:14:54;5.90;15.80
820;DHT22;392;48.838;2.322;2023-03-01T11:17:26;6.00;15.80
820;DHT22;392;48.838;2.322;2023-03-01T11:20:05;6.10;15.60
820;DHT22;392;48.838;2.322;2023-03-01T11:22:36;6.10;15.70
820;DHT22;392;48.838;2.322;2023-03-01T11:25:05;6.10;15.60
820;DHT22;392;48.838;2.322;2023-03-01T11:27:40;6.00;15.60
820;DHT22;392;48.838;2.322;2023-03-01T11:30:18;6.10;15.60
820;DHT22;392;48.838;2.322;2023-03-01T11:32:53;6.00;15.70
820;DHT22;392;48.838;2.322;2023-03-01T11:35:29;6.10;15.80
820;DHT22;392;48.838;2.322;2023-03-01T11:38:09;6.20;15.30
820;DHT22;392;48.838;2.322;2023-03-01T11:40:46;6.30;15.30
820;DHT22;392;48.838;2.322;2023-03-01T11:43:23;6.30;15.30
820;DHT22;392;48.838;2.322;2023-03-01T11:46:19;6.50;15.40
820;DHT22;392;48.838;2.322;2023-03-01T11:49:36;6.60;15.20
820;DHT22;392;48.838;2.322;2023-03-01T11:52:19;7.00;13.70
820;DHT22;392;48.838;2.322;2023-03-01T11:55:02;7.10;13.70
820;DHT22;392;48.838;2.322;2023-03-01T11:57:51;7.40;13.30
820;DHT22;392;48.838;2.322;2023-03-01T12:00:51;8.00;12.40
820;DHT22;392;48.838;2.322;2023-03-01T12:03:38;8.70;11.20
820;DHT22;392;48.838;2.322;2023-03-01T12:06:32;9.10;10.50
820;DHT22;392;48.838;2.322;2023-03-01T12:09:31;9.30;10.00
820;DHT22;392;48.838;2.322;2023-03-01T12:12:29;9.70;9.40
820;DHT22;392;48.838;2.322;2023-03-01T12:15:21;10.10;8.30
820;DHT22;392;48.838;2.322;2023-03-01T12:18:10;10.70;7.70
820;DHT22;392;48.838;2.322;2023-03-01T12:21:01;11.60;6.60
820;DHT22;392;48.838;2.322;2023-03-01T12:24:04;12.30;5.40
820;DHT22;392;48.838;2.322;2023-03-01T12:26:46;13.00;4.70
820;DHT22;392;48.838;2.322;2023-03-01T12:29:26;13.70;3.70
820;DHT22;392;48.838;2.322;2023-03-01T12:32:15;14.00;2.70
820;DHT22;392;48.838;2.322;2023-03-01T12:35:06;14.10;2.60
820;DHT22;392;48.838;2.322;2023-03-01T12:37:54;14.20;2.70
820;DHT22;392;48.838;2.322;2023-03-01T12:40:53;14.30;2.80
820;DHT22;392;48.838;2.322;2023-03-01T12:43:44;14.20;2.40
820;DHT22;392;48.838;2.322;2023-03-01T12:49:36;14.50;1.80
820;DHT22;392;48.838;2.322;2023-03-01T12:52:11;14.20;2.10
820;DHT22;392;48.838;2.322;2023-03-01T12:54:42;14.30;2.30
820;DHT22;392;48.838;2.322;2023-03-01T12:57:17;14.60;2.40
820;DHT22;392;48.838;2.322;2023-03-01T12:59:59;14.40;1.80
820;DHT22;392;48.838;2.322;2023-03-01T13:02:38;14.30;2.00
820;DHT22;392;48.838;2.322;2023-03-01T13:05:26;14.20;2.10
820;DHT22;392;48.838;2.322;2023-03-01T13:08:07;14.50;2.10
820;DHT22;392;48.838;2.322;2023-03-01T13:10:43;14.80;1.60
820;DHT22;392;48.838;2.322;2023-03-01T13:13:19;14.50;1.80
820;DHT22;392;48.838;2.322;2023-03-01T13:15:49;14.50;1.80
820;DHT22;392;48.838;2.322;2023-03-01T13:18:29;14.40;1.90
820;DHT22;392;48.838;2.322;2023-03-01T13:20:59;14.20;2.30
820;DHT22;392;48.838;2.322;2023-03-01T13:23:34;14.40;2.10
820;DHT22;392;48.838;2.322;2023-03-01T13:26:09;14.50;1.60
820;DHT22;392;48.838;2.322;2023-03-01T13:28:50;14.30;1.80
820;DHT22;392;48.838;2.322;2023-03-01T13:34:58;13.50;2.30
820;DHT22;392;48.838;2.322;2023-03-01T13:37:28;13.40;2.90
820;DHT22;392;48.838;2.322;2023-03-01T13:40:03;13.50;2.80
820;DHT22;392;48.838;2.322;2023-03-01T13:42:50;13.60;2.80
820;DHT22;392;48.838;2.322;2023-03-01T13:45:25;13.80;2.60
820;DHT22;392;48.838;2.322;2023-03-01T13:48:04;13.80;2.40
820;DHT22;392;48.838;2.322;2023-03-01T13:50:42;13.60;2.40
820;DHT22;392;48.838;2.322;2023-03-01T13:53:17;13.60;2.60
820;DHT22;392;48.838;2.322;2023-03-01T13:55:47;13.80;2.40
820;DHT22;392;48.838;2.322;2023-03-01T13:58:20;13.90;2.50
820;DHT22;392;48.838;2.322;2023-03-01T14:00:59;13.80;2.40
820;DHT22;392;48.838;2.322;2023-03-01T14:03:30;13.30;2.90
820;DHT22;392;48.838;2.322;2023-03-01T14:06:07;13.20;3.20
820;DHT22;392;48.838;2.322;2023-03-01T14:08:36;13.10;3.00
820;DHT22;392;48.838;2.322;2023-03-01T14:14:31;12.70;3.60
820;DHT22;392;48.838;2.322;2023-03-01T14:17:38;12.60;3.90
820;DHT22;392;48.838;2.322;2023-03-01T14:20:30;12.90;3.60
820;DHT22;392;48.838;2.322;2023-03-01T14:23:02;13.20;3.20
820;DHT22;392;48.838;2.322;2023-03-01T14:25:37;13.20;3.10
820;DHT22;392;48.838;2.322;2023-03-01T14:28:15;13.10;3.20
820;DHT22;392;48.838;2.322;2023-03-01T14:30:45;12.90;3.30
820;DHT22;392;48.838;2.322;2023-03-01T14:33:21;12.60;3.60
820;DHT22;392;48.838;2.322;2023-03-01T14:35:56;12.20;3.80
820;DHT22;392;48.838;2.322;2023-03-01T14:38:31;11.80;4.50
820;DHT22;392;48.838;2.322;2023-03-01T14:41:02;11.70;4.90
820;DHT22;392;48.838;2.322;2023-03-01T14:43:33;11.70;5.20
820;DHT22;392;48.838;2.322;2023-03-01T14:46:03;11.50;5.20
820;DHT22;392;48.838;2.322;2023-03-01T14:48:31;11.60;5.30
820;DHT22;392;48.838;2.322;2023-03-01T14:51:00;11.60;5.40
820;DHT22;392;48.838;2.322;2023-03-01T14:53:33;11.60;5.70
820;DHT22;392;48.838;2.322;2023-03-01T14:56:02;11.60;5.80
820;DHT22;392;48.838;2.322;2023-03-01T14:58:32;11.40;5.90
820;DHT22;392;48.838;2.322;2023-03-01T15:01:03;11.40;6.10
820;DHT22;392;48.838;2.322;2023-03-01T15:03:34;11.40;6.20
820;DHT22;392;48.838;2.322;2023-03-01T15:06:06;11.40;6.30
820;DHT22;392;48.838;2.322;2023-03-01T15:08:35;11.30;6.40
820;DHT22;392;48.838;2.322;2023-03-01T15:11:15;11.30;6.70
820;DHT22;392;48.838;2.322;2023-03-01T15:13:46;11.20;6.80
820;DHT22;392;48.838;2.322;2023-03-01T15:16:16;11.10;6.90
820;DHT22;392;48.838;2.322;2023-03-01T15:18:46;11.00;7.20
820;DHT22;392;48.838;2.322;2023-03-01T15:21:20;10.70;7.40
820;DHT22;392;48.838;2.322;2023-03-01T15:23:52;10.50;7.80
820;DHT22;392;48.838;2.322;2023-03-01T15:26:29;10.40;8.30
820;DHT22;392;48.838;2.322;2023-03-01T15:28:58;10.10;8.60
820;DHT22;392;48.838;2.322;2023-03-01T15:31:28;9.90;9.60
820;DHT22;392;48.838;2.322;2023-03-01T15:34:11;9.60;9.90
820;DHT22;392;48.838;2.322;2023-03-01T15:36:51;9.50;10.40
820;DHT22;392;48.838;2.322;2023-03-01T15:39:37;9.40;10.50
820;DHT22;392;48.838;2.322;2023-03-01T15:42:08;9.20;10.70
820;DHT22;392;48.838;2.322;2023-03-01T15:44:40;9.20;11.00
820;DHT22;392;48.838;2.322;2023-03-01T15:47:26;9.10;11.30
820;DHT22;392;48.838;2.322;2023-03-01T15:49:54;9.00;11.20
820;DHT22;392;48.838;2.322;2023-03-01T15:52:26;8.90;11.30
820;DHT22;392;48.838;2.322;2023-03-01T15:54:57;8.90;11.40
820;DHT22;392;48.838;2.322;2023-03-01T15:57:25;8.80;11.50
820;DHT22;392;48.838;2.322;2023-03-01T15:59:52;8.70;11.60
820;DHT22;392;48.838;2.322;2023-03-01T16:02:21;8.60;11.70
820;DHT22;392;48.838;2.322;2023-03-01T16:04:49;8.60;11.90
820;DHT22;392;48.838;2.322;2023-03-01T16:07:16;8.70;11.80
820;DHT22;392;48.838;2.322;2023-03-01T16:09:45;8.60;11.90
820;DHT22;392;48.838;2.322;2023-03-01T16:12:14;8.60;12.00
820;DHT22;392;48.838;2.322;2023-03-01T16:14:42;8.60;12.10
820;DHT22;392;48.838;2.322;2023-03-01T16:17:10;8.60;12.10
820;DHT22;392;48.838;2.322;2023-03-01T16:19:37;8.60;11.90
820;DHT22;392;48.838;2.322;2023-03-01T16:22:04;8.60;11.90
820;DHT22;392;48.838;2.322;2023-03-01T16:24:32;8.60;11.90
820;DHT22;392;48.838;2.322;2023-03-01T16:27:03;8.50;12.20
820;DHT22;392;48.838;2.322;2023-03-01T16:29:30;8.30;12.40
820;DHT22;392;48.838;2.322;2023-03-01T16:32:00;8.30;12.40
820;DHT22;392;48.838;2.322;2023-03-01T16:34:28;8.40;12.50
820;DHT22;392;48.838;2.322;2023-03-01T16:36:55;8.40;12.40
820;DHT22;392;48.838;2.322;2023-03-01T16:39:22;8.30;12.40
820;DHT22;392;48.838;2.322;2023-03-01T16:41:50;8.30;12.40
820;DHT22;392;48.838;2.322;2023-03-01T16:44:18;8.30;12.40
820;DHT22;392;48.838;2.322;2023-03-01T16:46:46;8.20;12.30
820;DHT22;392;48.838;2.322;2023-03-01T16:49:13;8.20;12.30
820;DHT22;392;48.838;2.322;2023-03-01T16:51:41;8.10;12.80
820;DHT22;392;48.838;2.322;2023-03-01T16:54:09;8.10;12.30
820;DHT22;392;48.838;2.322;2023-03-01T16:56:37;8.10;12.50
820;DHT22;392;48.838;2.322;2023-03-01T16:59:05;8.00;12.60
820;DHT22;392;48.838;2.322;2023-03-01T17:01:35;8.00;12.70
820;DHT22;392;48.838;2.322;2023-03-01T17:04:10;7.90;12.90
820;DHT22;392;48.838;2.322;2023-03-01T17:06:38;7.90;13.00
820;DHT22;392;48.838;2.322;2023-03-01T17:09:05;7.90;12.90
820;DHT22;392;48.838;2.322;2023-03-01T17:11:32;7.90;12.80
820;DHT22;392;48.838;2.322;2023-03-01T17:14:00;7.90;12.90
820;DHT22;392;48.838;2.322;2023-03-01T17:16:27;7.80;12.90
820;DHT22;392;48.838;2.322;2023-03-01T17:18:56;7.90;13.00
820;DHT22;392;48.838;2.322;2023-03-01T17:21:24;7.80;13.00
820;DHT22;392;48.838;2.322;2023-03-01T17:23:55;7.80;13.10
820;DHT22;392;48.838;2.322;2023-03-01T17:26:23;7.70;13.10
820;DHT22;392;48.838;2.322;2023-03-01T17:28:50;7.70;13.30
820;DHT22;392;48.838;2.322;2023-03-01T17:31:18;7.60;13.50
820;DHT22;392;48.838;2.322;2023-03-01T17:33:46;7.50;13.50